KEVV/EVV METAR and TAF weather

Enter ICAO airport designator
Station Type Date Time Source
KEVV METAR 2020/09/22 08:12 UTC NOAA

KEVV 220812Z AUTO 00000KT 3/4SM R22/P6000FT BR CLR 12/10 A3025 RMK AO2 VIS 1/2V4 T01170100


Station Type Date Time Source
KEVV Decoded METAR 2020/09/22 08:12 UTC NOAA

EVANSVILLE REGIONAL, IN, United States (KEVV) 38-02N 087-32W 117M
Sep 22, 2020 - 04:12 AM EDT / 2020.09.22 0812 UTC
Wind: Calm:0
Visibility: 3/4 mile(s):0
Sky conditions: clear
Weather: mist
Temperature: 53.1 F (11.7 C)
Dew Point: 50.0 F (10.0 C)
Relative Humidity: 89%
Pressure (altimeter): 30.25 in. Hg (1024 hPa)
ob: KEVV 220812Z AUTO 00000KT 3/4SM R22/P6000FT BR CLR 12/10 A3025 RMK AO2 VIS 1/2V4 T01170100
cycle: 8

Station Type Date Time Source
KEVV TAF 2020/09/22 07:30 UTC NOAA

TAF
AMD KEVV 220729Z 2207/2306 00000KT 3SM BR SKC
TEMPO 2207/2211 1SM BR
FM221400 18004KT P6SM FEW050 BKN250
FM230000 VRB03KT P6SM BKN250

Example: see airport list